sensor_id;sensor_type;location;lat;lon;timestamp;P1;durP1;ratioP1;P2;durP2;ratioP2
13222;SDS011;6676;45.192;5.722;2022-12-07T00:01:21;12.58;;;7.83;;
13222;SDS011;6676;45.192;5.722;2022-12-07T00:04:14;15.35;;;8.83;;
13222;SDS011;6676;45.192;5.722;2022-12-07T00:07:07;14.25;;;8.18;;
13222;SDS011;6676;45.192;5.722;2022-12-07T00:09:58;12.23;;;7.67;;
13222;SDS011;6676;45.192;5.722;2022-12-07T00:12:51;14.90;;;8.55;;
13222;SDS011;6676;45.192;5.722;2022-12-07T00:15:43;13.13;;;8.78;;
13222;SDS011;6676;45.192;5.722;2022-12-07T00:18:34;15.50;;;8.78;;
13222;SDS011;6676;45.192;5.722;2022-12-07T00:24:06;14.93;;;8.50;;
13222;SDS011;6676;45.192;5.722;2022-12-07T00:26:59;13.05;;;8.68;;
13222;SDS011;6676;45.192;5.722;2022-12-07T00:29:50;14.87;;;8.95;;
13222;SDS011;6676;45.192;5.722;2022-12-07T00:32:42;13.90;;;8.35;;
13222;SDS011;6676;45.192;5.722;2022-12-07T00:35:34;13.53;;;8.33;;
13222;SDS011;6676;45.192;5.722;2022-12-07T00:38:28;13.32;;;7.70;;
13222;SDS011;6676;45.192;5.722;2022-12-07T00:41:22;13.10;;;8.33;;
13222;SDS011;6676;45.192;5.722;2022-12-07T00:44:14;13.65;;;8.83;;
13222;SDS011;6676;45.192;5.722;2022-12-07T00:47:06;12.65;;;7.80;;
13222;SDS011;6676;45.192;5.722;2022-12-07T00:49:57;14.55;;;9.10;;
13222;SDS011;6676;45.192;5.722;2022-12-07T00:52:38;13.32;;;9.20;;
13222;SDS011;6676;45.192;5.722;2022-12-07T00:58:14;15.70;;;11.10;;
13222;SDS011;6676;45.192;5.722;2022-12-07T01:01:07;14.65;;;9.75;;
13222;SDS011;6676;45.192;5.722;2022-12-07T01:04:00;13.32;;;8.73;;
13222;SDS011;6676;45.192;5.722;2022-12-07T01:06:54;12.85;;;8.80;;
13222;SDS011;6676;45.192;5.722;2022-12-07T01:09:46;13.95;;;8.80;;
13222;SDS011;6676;45.192;5.722;2022-12-07T01:12:37;12.43;;;8.65;;
13222;SDS011;6676;45.192;5.722;2022-12-07T01:15:29;13.30;;;8.95;;
13222;SDS011;6676;45.192;5.722;2022-12-07T01:18:21;14.05;;;8.90;;
13222;SDS011;6676;45.192;5.722;2022-12-07T01:21:02;13.83;;;8.90;;
13222;SDS011;6676;45.192;5.722;2022-12-07T01:23:57;14.58;;;8.63;;
13222;SDS011;6676;45.192;5.722;2022-12-07T01:26:49;14.33;;;8.13;;
13222;SDS011;6676;45.192;5.722;2022-12-07T01:29:41;12.43;;;7.72;;
13222;SDS011;6676;45.192;5.722;2022-12-07T01:32:33;12.35;;;8.55;;
13222;SDS011;6676;45.192;5.722;2022-12-07T01:38:05;12.65;;;7.45;;
13222;SDS011;6676;45.192;5.722;2022-12-07T01:40:56;14.00;;;8.13;;
13222;SDS011;6676;45.192;5.722;2022-12-07T01:44:09;11.68;;;7.65;;
13222;SDS011;6676;45.192;5.722;2022-12-07T01:46:52;11.78;;;7.47;;
13222;SDS011;6676;45.192;5.722;2022-12-07T01:49:46;12.45;;;8.13;;
13222;SDS011;6676;45.192;5.722;2022-12-07T01:52:28;13.75;;;8.45;;
13222;SDS011;6676;45.192;5.722;2022-12-07T01:57:59;11.38;;;7.87;;
13222;SDS011;6676;45.192;5.722;2022-12-07T02:00:51;13.40;;;8.35;;
13222;SDS011;6676;45.192;5.722;2022-12-07T02:03:43;11.00;;;7.33;;
13222;SDS011;6676;45.192;5.722;2022-12-07T02:09:14;12.33;;;8.05;;
13222;SDS011;6676;45.192;5.722;2022-12-07T02:12:05;11.60;;;7.97;;
13222;SDS011;6676;45.192;5.722;2022-12-07T02:14:57;12.63;;;8.18;;
13222;SDS011;6676;45.192;5.722;2022-12-07T02:17:50;10.50;;;6.87;;
13222;SDS011;6676;45.192;5.722;2022-12-07T02:20:30;13.48;;;8.50;;
13222;SDS011;6676;45.192;5.722;2022-12-07T02:27:09;12.47;;;8.43;;
13222;SDS011;6676;45.192;5.722;2022-12-07T02:32:48;18.23;;;8.43;;
13222;SDS011;6676;45.192;5.722;2022-12-07T02:35:30;15.65;;;8.55;;
13222;SDS011;6676;45.192;5.722;2022-12-07T02:38:24;13.13;;;7.75;;
13222;SDS011;6676;45.192;5.722;2022-12-07T02:41:19;14.03;;;8.50;;
13222;SDS011;6676;45.192;5.722;2022-12-07T02:44:14;11.08;;;7.55;;
13222;SDS011;6676;45.192;5.722;2022-12-07T02:47:09;12.82;;;8.68;;
13222;SDS011;6676;45.192;5.722;2022-12-07T02:52:42;14.98;;;9.00;;
13222;SDS011;6676;45.192;5.722;2022-12-07T02:58:23;12.30;;;8.18;;
13222;SDS011;6676;45.192;5.722;2022-12-07T03:01:19;14.33;;;8.13;;
13222;SDS011;6676;45.192;5.722;2022-12-07T03:04:02;11.25;;;7.55;;
13222;SDS011;6676;45.192;5.722;2022-12-07T03:06:58;13.80;;;8.85;;
13222;SDS011;6676;45.192;5.722;2022-12-07T03:09:40;11.35;;;8.78;;
13222;SDS011;6676;45.192;5.722;2022-12-07T03:12:35;12.37;;;8.35;;
13222;SDS011;6676;45.192;5.722;2022-12-07T03:15:31;14.38;;;8.55;;
13222;SDS011;6676;45.192;5.722;2022-12-07T03:18:25;14.30;;;9.05;;
13222;SDS011;6676;45.192;5.722;2022-12-07T03:24:02;13.53;;;7.58;;
13222;SDS011;6676;45.192;5.722;2022-12-07T03:29:40;11.97;;;8.58;;
13222;SDS011;6676;45.192;5.722;2022-12-07T03:32:33;14.60;;;9.00;;
13222;SDS011;6676;45.192;5.722;2022-12-07T03:35:28;12.65;;;8.28;;
13222;SDS011;6676;45.192;5.722;2022-12-07T03:38:23;16.45;;;11.95;;
13222;SDS011;6676;45.192;5.722;2022-12-07T03:43:56;14.25;;;8.83;;
13222;SDS011;6676;45.192;5.722;2022-12-07T03:46:50;14.00;;;8.55;;
13222;SDS011;6676;45.192;5.722;2022-12-07T03:49:45;12.03;;;8.15;;
13222;SDS011;6676;45.192;5.722;2022-12-07T03:52:39;11.65;;;8.55;;
13222;SDS011;6676;45.192;5.722;2022-12-07T03:58:12;11.78;;;8.30;;
13222;SDS011;6676;45.192;5.722;2022-12-07T04:03:46;13.35;;;8.90;;
13222;SDS011;6676;45.192;5.722;2022-12-07T04:06:38;13.22;;;8.40;;
13222;SDS011;6676;45.192;5.722;2022-12-07T04:09:30;12.23;;;7.90;;
13222;SDS011;6676;45.192;5.722;2022-12-07T04:15:02;13.08;;;8.95;;
13222;SDS011;6676;45.192;5.722;2022-12-07T04:17:42;13.03;;;8.60;;
13222;SDS011;6676;45.192;5.722;2022-12-07T04:20:33;12.05;;;7.62;;
13222;SDS011;6676;45.192;5.722;2022-12-07T04:23:25;11.93;;;8.43;;
13222;SDS011;6676;45.192;5.722;2022-12-07T04:26:17;13.65;;;8.63;;
13222;SDS011;6676;45.192;5.722;2022-12-07T04:29:09;12.28;;;8.15;;
13222;SDS011;6676;45.192;5.722;2022-12-07T04:32:01;14.65;;;8.75;;
13222;SDS011;6676;45.192;5.722;2022-12-07T04:34:53;12.93;;;8.53;;
13222;SDS011;6676;45.192;5.722;2022-12-07T04:37:47;13.58;;;9.33;;
13222;SDS011;6676;45.192;5.722;2022-12-07T04:43:23;12.98;;;9.00;;
13222;SDS011;6676;45.192;5.722;2022-12-07T04:46:14;12.65;;;8.40;;
13222;SDS011;6676;45.192;5.722;2022-12-07T04:49:06;13.35;;;8.90;;
13222;SDS011;6676;45.192;5.722;2022-12-07T04:51:59;12.55;;;8.68;;
13222;SDS011;6676;45.192;5.722;2022-12-07T04:54:51;12.35;;;8.73;;
13222;SDS011;6676;45.192;5.722;2022-12-07T04:57:43;13.80;;;8.70;;
13222;SDS011;6676;45.192;5.722;2022-12-07T05:00:35;13.53;;;8.90;;
13222;SDS011;6676;45.192;5.722;2022-12-07T05:03:27;13.95;;;9.15;;
13222;SDS011;6676;45.192;5.722;2022-12-07T05:06:18;14.40;;;9.55;;
13222;SDS011;6676;45.192;5.722;2022-12-07T05:09:10;13.85;;;8.75;;
13222;SDS011;6676;45.192;5.722;2022-12-07T05:12:02;13.38;;;9.20;;
13222;SDS011;6676;45.192;5.722;2022-12-07T05:14:53;13.45;;;8.05;;
13222;SDS011;6676;45.192;5.722;2022-12-07T05:20:29;13.68;;;10.58;;
13222;SDS011;6676;45.192;5.722;2022-12-07T05:23:22;12.37;;;9.00;;
13222;SDS011;6676;45.192;5.722;2022-12-07T05:26:14;13.28;;;8.65;;
13222;SDS011;6676;45.192;5.722;2022-12-07T05:29:06;12.70;;;8.40;;
13222;SDS011;6676;45.192;5.722;2022-12-07T05:31:59;11.75;;;8.10;;
13222;SDS011;6676;45.192;5.722;2022-12-07T05:34:51;12.65;;;7.92;;
13222;SDS011;6676;45.192;5.722;2022-12-07T05:37:43;13.05;;;8.18;;
13222;SDS011;6676;45.192;5.722;2022-12-07T05:43:27;13.03;;;7.83;;
13222;SDS011;6676;45.192;5.722;2022-12-07T05:46:18;11.93;;;8.08;;
13222;SDS011;6676;45.192;5.722;2022-12-07T05:49:03;13.22;;;10.35;;
13222;SDS011;6676;45.192;5.722;2022-12-07T05:51:55;12.63;;;9.00;;
13222;SDS011;6676;45.192;5.722;2022-12-07T05:54:47;12.88;;;8.83;;
13222;SDS011;6676;45.192;5.722;2022-12-07T05:57:38;12.93;;;9.23;;
13222;SDS011;6676;45.192;5.722;2022-12-07T06:00:32;14.15;;;9.43;;
13222;SDS011;6676;45.192;5.722;2022-12-07T06:03:24;16.73;;;9.60;;
13222;SDS011;6676;45.192;5.722;2022-12-07T06:06:16;14.58;;;9.23;;
13222;SDS011;6676;45.192;5.722;2022-12-07T06:09:07;14.23;;;9.60;;
13222;SDS011;6676;45.192;5.722;2022-12-07T06:12:01;12.60;;;8.38;;
13222;SDS011;6676;45.192;5.722;2022-12-07T06:17:49;13.53;;;9.43;;
13222;SDS011;6676;45.192;5.722;2022-12-07T06:23:20;12.70;;;8.83;;
13222;SDS011;6676;45.192;5.722;2022-12-07T06:26:13;14.28;;;8.33;;
13222;SDS011;6676;45.192;5.722;2022-12-07T06:29:05;11.83;;;7.80;;
13222;SDS011;6676;45.192;5.722;2022-12-07T06:31:57;11.83;;;7.67;;
13222;SDS011;6676;45.192;5.722;2022-12-07T06:34:50;11.55;;;7.58;;
13222;SDS011;6676;45.192;5.722;2022-12-07T06:37:41;13.85;;;9.03;;
13222;SDS011;6676;45.192;5.722;2022-12-07T06:40:33;11.18;;;8.45;;
13222;SDS011;6676;45.192;5.722;2022-12-07T06:43:14;11.28;;;7.95;;
13222;SDS011;6676;45.192;5.722;2022-12-07T06:46:06;13.53;;;8.50;;
13222;SDS011;6676;45.192;5.722;2022-12-07T06:48:58;14.07;;;9.40;;
13222;SDS011;6676;45.192;5.722;2022-12-07T06:51:45;14.73;;;9.43;;
13222;SDS011;6676;45.192;5.722;2022-12-07T06:54:36;13.25;;;8.85;;
13222;SDS011;6676;45.192;5.722;2022-12-07T06:57:21;17.82;;;12.35;;
13222;SDS011;6676;45.192;5.722;2022-12-07T07:03:06;14.00;;;8.95;;
13222;SDS011;6676;45.192;5.722;2022-12-07T07:05:58;14.70;;;9.53;;
13222;SDS011;6676;45.192;5.722;2022-12-07T07:08:50;12.60;;;8.90;;
13222;SDS011;6676;45.192;5.722;2022-12-07T07:11:42;15.13;;;9.85;;
13222;SDS011;6676;45.192;5.722;2022-12-07T07:14:34;14.03;;;9.28;;
13222;SDS011;6676;45.192;5.722;2022-12-07T07:17:26;13.10;;;9.13;;
13222;SDS011;6676;45.192;5.722;2022-12-07T07:20:18;14.87;;;10.08;;
13222;SDS011;6676;45.192;5.722;2022-12-07T07:23:03;17.10;;;12.45;;
13222;SDS011;6676;45.192;5.722;2022-12-07T07:28:38;15.98;;;10.10;;
13222;SDS011;6676;45.192;5.722;2022-12-07T07:31:29;12.73;;;8.38;;
13222;SDS011;6676;45.192;5.722;2022-12-07T07:34:23;11.40;;;7.75;;
13222;SDS011;6676;45.192;5.722;2022-12-07T07:39:53;13.90;;;8.45;;
13222;SDS011;6676;45.192;5.722;2022-12-07T07:42:47;14.07;;;8.60;;
13222;SDS011;6676;45.192;5.722;2022-12-07T07:48:18;12.28;;;8.15;;
13222;SDS011;6676;45.192;5.722;2022-12-07T07:51:11;12.03;;;8.13;;
13222;SDS011;6676;45.192;5.722;2022-12-07T07:54:06;13.40;;;7.87;;
13222;SDS011;6676;45.192;5.722;2022-12-07T07:56:58;11.97;;;8.20;;
13222;SDS011;6676;45.192;5.722;2022-12-07T07:59:51;11.25;;;8.00;;
13222;SDS011;6676;45.192;5.722;2022-12-07T08:02:43;14.23;;;9.33;;
13222;SDS011;6676;45.192;5.722;2022-12-07T08:08:15;10.85;;;8.50;;
13222;SDS011;6676;45.192;5.722;2022-12-07T08:13:45;13.95;;;8.83;;
13222;SDS011;6676;45.192;5.722;2022-12-07T08:16:37;13.45;;;9.25;;
13222;SDS011;6676;45.192;5.722;2022-12-07T08:19:29;13.45;;;8.73;;
13222;SDS011;6676;45.192;5.722;2022-12-07T08:22:21;13.60;;;8.90;;
13222;SDS011;6676;45.192;5.722;2022-12-07T08:27:55;13.53;;;8.90;;
13222;SDS011;6676;45.192;5.722;2022-12-07T08:30:47;13.13;;;8.68;;
13222;SDS011;6676;45.192;5.722;2022-12-07T08:33:39;13.08;;;9.33;;
13222;SDS011;6676;45.192;5.722;2022-12-07T08:36:31;14.38;;;9.03;;
13222;SDS011;6676;45.192;5.722;2022-12-07T08:39:22;15.15;;;9.05;;
13222;SDS011;6676;45.192;5.722;2022-12-07T08:44:55;13.30;;;8.48;;
13222;SDS011;6676;45.192;5.722;2022-12-07T08:47:55;12.63;;;8.60;;
13222;SDS011;6676;45.192;5.722;2022-12-07T08:50:51;14.90;;;9.33;;
13222;SDS011;6676;45.192;5.722;2022-12-07T08:53:45;15.48;;;8.93;;
13222;SDS011;6676;45.192;5.722;2022-12-07T08:56:25;11.48;;;8.38;;
13222;SDS011;6676;45.192;5.722;2022-12-07T08:59:17;13.35;;;8.58;;
13222;SDS011;6676;45.192;5.722;2022-12-07T09:02:10;11.48;;;8.03;;
13222;SDS011;6676;45.192;5.722;2022-12-07T09:05:01;12.68;;;7.95;;
13222;SDS011;6676;45.192;5.722;2022-12-07T09:07:57;15.55;;;8.85;;
13222;SDS011;6676;45.192;5.722;2022-12-07T09:10:50;15.00;;;9.58;;
13222;SDS011;6676;45.192;5.722;2022-12-07T09:13:42;15.30;;;9.15;;
13222;SDS011;6676;45.192;5.722;2022-12-07T09:16:34;14.30;;;9.75;;
13222;SDS011;6676;45.192;5.722;2022-12-07T09:19:25;16.30;;;9.48;;
13222;SDS011;6676;45.192;5.722;2022-12-07T09:22:21;13.00;;;8.95;;
13222;SDS011;6676;45.192;5.722;2022-12-07T09:27:55;15.53;;;9.65;;
13222;SDS011;6676;45.192;5.722;2022-12-07T09:30:48;13.45;;;9.03;;
13222;SDS011;6676;45.192;5.722;2022-12-07T09:33:41;13.62;;;8.63;;
13222;SDS011;6676;45.192;5.722;2022-12-07T09:36:34;11.12;;;8.05;;
13222;SDS011;6676;45.192;5.722;2022-12-07T09:39:26;12.85;;;8.70;;
13222;SDS011;6676;45.192;5.722;2022-12-07T09:42:26;13.22;;;8.73;;
13222;SDS011;6676;45.192;5.722;2022-12-07T09:45:21;13.00;;;8.53;;
13222;SDS011;6676;45.192;5.722;2022-12-07T09:48:16;11.15;;;8.23;;
13222;SDS011;6676;45.192;5.722;2022-12-07T09:51:13;17.95;;;9.05;;
13222;SDS011;6676;45.192;5.722;2022-12-07T09:53:54;11.08;;;8.08;;
13222;SDS011;6676;45.192;5.722;2022-12-07T09:56:47;12.88;;;8.85;;
13222;SDS011;6676;45.192;5.722;2022-12-07T09:59:38;12.53;;;8.38;;
13222;SDS011;6676;45.192;5.722;2022-12-07T10:07:51;13.40;;;9.43;;
13222;SDS011;6676;45.192;5.722;2022-12-07T10:13:33;14.47;;;9.68;;
13222;SDS011;6676;45.192;5.722;2022-12-07T10:16:31;15.70;;;10.82;;
13222;SDS011;6676;45.192;5.722;2022-12-07T10:19:25;15.13;;;10.53;;
13222;SDS011;6676;45.192;5.722;2022-12-07T10:22:18;18.15;;;11.05;;
13222;SDS011;6676;45.192;5.722;2022-12-07T10:27:58;17.80;;;11.95;;
13222;SDS011;6676;45.192;5.722;2022-12-07T10:31:02;17.77;;;10.85;;
13222;SDS011;6676;45.192;5.722;2022-12-07T10:34:00;18.17;;;10.90;;
13222;SDS011;6676;45.192;5.722;2022-12-07T10:36:52;16.37;;;11.40;;
13222;SDS011;6676;45.192;5.722;2022-12-07T10:39:47;16.23;;;10.58;;
13222;SDS011;6676;45.192;5.722;2022-12-07T10:42:47;15.05;;;10.93;;
13222;SDS011;6676;45.192;5.722;2022-12-07T10:48:26;15.85;;;12.68;;
13222;SDS011;6676;45.192;5.722;2022-12-07T10:51:21;14.33;;;10.38;;
13222;SDS011;6676;45.192;5.722;2022-12-07T10:54:16;16.67;;;9.33;;
13222;SDS011;6676;45.192;5.722;2022-12-07T11:00:21;16.67;;;10.98;;
13222;SDS011;6676;45.192;5.722;2022-12-07T11:03:24;15.32;;;10.58;;
13222;SDS011;6676;45.192;5.722;2022-12-07T11:06:27;16.55;;;10.43;;
13222;SDS011;6676;45.192;5.722;2022-12-07T11:09:29;19.80;;;10.00;;
13222;SDS011;6676;45.192;5.722;2022-12-07T11:12:41;14.38;;;9.98;;
13222;SDS011;6676;45.192;5.722;2022-12-07T11:18:32;16.97;;;11.83;;
13222;SDS011;6676;45.192;5.722;2022-12-07T11:21:26;13.40;;;10.10;;
13222;SDS011;6676;45.192;5.722;2022-12-07T11:24:20;15.25;;;10.60;;
13222;SDS011;6676;45.192;5.722;2022-12-07T11:27:17;14.80;;;10.00;;
13222;SDS011;6676;45.192;5.722;2022-12-07T11:32:55;14.28;;;10.15;;
13222;SDS011;6676;45.192;5.722;2022-12-07T11:36:04;14.68;;;10.10;;
13222;SDS011;6676;45.192;5.722;2022-12-07T11:39:00;12.23;;;9.23;;
13222;SDS011;6676;45.192;5.722;2022-12-07T11:41:56;13.13;;;10.18;;
13222;SDS011;6676;45.192;5.722;2022-12-07T11:44:53;12.53;;;9.05;;
13222;SDS011;6676;45.192;5.722;2022-12-07T11:47:47;15.32;;;9.35;;
13222;SDS011;6676;45.192;5.722;2022-12-07T11:53:19;14.68;;;10.40;;
13222;SDS011;6676;45.192;5.722;2022-12-07T11:56:14;17.05;;;10.93;;
13222;SDS011;6676;45.192;5.722;2022-12-07T11:59:09;15.75;;;10.75;;
13222;SDS011;6676;45.192;5.722;2022-12-07T12:02:08;17.05;;;10.68;;
13222;SDS011;6676;45.192;5.722;2022-12-07T12:05:02;16.97;;;10.10;;
13222;SDS011;6676;45.192;5.722;2022-12-07T12:07:59;15.63;;;10.18;;
13222;SDS011;6676;45.192;5.722;2022-12-07T12:10:58;14.80;;;10.00;;
13222;SDS011;6676;45.192;5.722;2022-12-07T12:17:12;16.45;;;10.18;;
13222;SDS011;6676;45.192;5.722;2022-12-07T12:20:06;14.33;;;9.88;;
13222;SDS011;6676;45.192;5.722;2022-12-07T12:22:55;11.45;;;8.90;;
13222;SDS011;6676;45.192;5.722;2022-12-07T12:25:49;12.33;;;9.20;;
13222;SDS011;6676;45.192;5.722;2022-12-07T12:28:50;13.68;;;10.28;;
13222;SDS011;6676;45.192;5.722;2022-12-07T12:31:42;12.60;;;9.40;;
13222;SDS011;6676;45.192;5.722;2022-12-07T12:34:40;16.50;;;9.80;;
13222;SDS011;6676;45.192;5.722;2022-12-07T12:37:40;13.60;;;9.83;;
13222;SDS011;6676;45.192;5.722;2022-12-07T12:43:47;15.53;;;9.60;;
13222;SDS011;6676;45.192;5.722;2022-12-07T12:49:39;17.92;;;11.33;;
13222;SDS011;6676;45.192;5.722;2022-12-07T13:02:16;15.88;;;10.85;;
13222;SDS011;6676;45.192;5.722;2022-12-07T13:07:57;14.43;;;9.28;;
13222;SDS011;6676;45.192;5.722;2022-12-07T13:13:40;13.30;;;10.25;;
13222;SDS011;6676;45.192;5.722;2022-12-07T13:22:51;12.05;;;9.05;;
13222;SDS011;6676;45.192;5.722;2022-12-07T13:29:05;14.50;;;10.20;;
13222;SDS011;6676;45.192;5.722;2022-12-07T13:32:00;15.65;;;10.88;;
13222;SDS011;6676;45.192;5.722;2022-12-07T13:34:52;14.03;;;9.85;;
13222;SDS011;6676;45.192;5.722;2022-12-07T13:37:44;14.47;;;9.88;;
13222;SDS011;6676;45.192;5.722;2022-12-07T13:43:15;14.78;;;9.88;;
13222;SDS011;6676;45.192;5.722;2022-12-07T13:46:10;14.00;;;9.90;;
13222;SDS011;6676;45.192;5.722;2022-12-07T13:49:13;14.80;;;10.18;;
13222;SDS011;6676;45.192;5.722;2022-12-07T13:54:56;14.85;;;9.40;;
13222;SDS011;6676;45.192;5.722;2022-12-07T13:57:51;13.93;;;9.80;;
13222;SDS011;6676;45.192;5.722;2022-12-07T14:00:44;14.43;;;10.53;;
13222;SDS011;6676;45.192;5.722;2022-12-07T14:03:35;13.88;;;10.13;;
13222;SDS011;6676;45.192;5.722;2022-12-07T14:06:27;18.20;;;10.70;;
13222;SDS011;6676;45.192;5.722;2022-12-07T14:09:21;15.68;;;10.15;;
13222;SDS011;6676;45.192;5.722;2022-12-07T14:12:14;15.45;;;10.38;;
13222;SDS011;6676;45.192;5.722;2022-12-07T14:15:15;14.00;;;10.45;;
13222;SDS011;6676;45.192;5.722;2022-12-07T14:18:25;14.63;;;10.53;;
13222;SDS011;6676;45.192;5.722;2022-12-07T14:21:19;14.73;;;10.68;;
13222;SDS011;6676;45.192;5.722;2022-12-07T14:24:15;16.32;;;9.73;;
13222;SDS011;6676;45.192;5.722;2022-12-07T14:27:17;13.38;;;9.75;;
13222;SDS011;6676;45.192;5.722;2022-12-07T14:33:08;13.80;;;9.30;;
13222;SDS011;6676;45.192;5.722;2022-12-07T14:35:59;15.10;;;9.58;;
13222;SDS011;6676;45.192;5.722;2022-12-07T14:38:51;13.68;;;9.33;;
13222;SDS011;6676;45.192;5.722;2022-12-07T14:41:44;12.45;;;9.00;;
13222;SDS011;6676;45.192;5.722;2022-12-07T14:44:42;13.50;;;9.05;;
13222;SDS011;6676;45.192;5.722;2022-12-07T14:47:34;14.73;;;9.45;;
13222;SDS011;6676;45.192;5.722;2022-12-07T14:50:27;14.80;;;9.88;;
13222;SDS011;6676;45.192;5.722;2022-12-07T14:53:21;14.80;;;9.78;;
13222;SDS011;6676;45.192;5.722;2022-12-07T14:56:00;13.50;;;9.53;;
13222;SDS011;6676;45.192;5.722;2022-12-07T14:58:53;13.08;;;9.00;;
13222;SDS011;6676;45.192;5.722;2022-12-07T15:01:46;13.20;;;9.33;;
13222;SDS011;6676;45.192;5.722;2022-12-07T15:04:38;12.23;;;8.93;;
13222;SDS011;6676;45.192;5.722;2022-12-07T15:07:29;18.17;;;13.30;;
13222;SDS011;6676;45.192;5.722;2022-12-07T15:10:22;17.92;;;10.30;;
13222;SDS011;6676;45.192;5.722;2022-12-07T15:13:17;15.95;;;10.10;;
13222;SDS011;6676;45.192;5.722;2022-12-07T15:16:26;13.62;;;9.98;;
13222;SDS011;6676;45.192;5.722;2022-12-07T15:19:20;13.50;;;9.83;;
13222;SDS011;6676;45.192;5.722;2022-12-07T15:22:18;14.13;;;9.25;;
13222;SDS011;6676;45.192;5.722;2022-12-07T15:25:13;13.65;;;9.98;;
13222;SDS011;6676;45.192;5.722;2022-12-07T15:28:06;12.28;;;8.85;;
13222;SDS011;6676;45.192;5.722;2022-12-07T15:30:59;12.75;;;8.60;;
13222;SDS011;6676;45.192;5.722;2022-12-07T15:33:52;15.72;;;9.83;;
13222;SDS011;6676;45.192;5.722;2022-12-07T15:36:44;16.62;;;10.72;;
13222;SDS011;6676;45.192;5.722;2022-12-07T15:39:36;16.10;;;10.10;;
13222;SDS011;6676;45.192;5.722;2022-12-07T15:42:28;17.37;;;10.85;;
13222;SDS011;6676;45.192;5.722;2022-12-07T15:45:20;12.88;;;9.45;;
13222;SDS011;6676;45.192;5.722;2022-12-07T15:48:12;12.85;;;9.28;;
13222;SDS011;6676;45.192;5.722;2022-12-07T15:51:02;13.13;;;9.65;;
13222;SDS011;6676;45.192;5.722;2022-12-07T15:53:54;14.18;;;9.95;;
13222;SDS011;6676;45.192;5.722;2022-12-07T15:56:47;14.28;;;9.85;;
13222;SDS011;6676;45.192;5.722;2022-12-07T15:59:39;14.58;;;9.95;;
13222;SDS011;6676;45.192;5.722;2022-12-07T16:02:31;14.75;;;9.93;;
13222;SDS011;6676;45.192;5.722;2022-12-07T16:05:24;15.00;;;9.93;;
13222;SDS011;6676;45.192;5.722;2022-12-07T16:08:16;14.20;;;9.43;;
13222;SDS011;6676;45.192;5.722;2022-12-07T16:11:07;13.35;;;8.80;;
13222;SDS011;6676;45.192;5.722;2022-12-07T16:13:59;13.65;;;9.13;;
13222;SDS011;6676;45.192;5.722;2022-12-07T16:16:51;13.43;;;9.10;;
13222;SDS011;6676;45.192;5.722;2022-12-07T16:19:43;14.33;;;10.18;;
13222;SDS011;6676;45.192;5.722;2022-12-07T16:22:35;14.25;;;10.13;;
13222;SDS011;6676;45.192;5.722;2022-12-07T16:25:26;13.78;;;8.88;;
13222;SDS011;6676;45.192;5.722;2022-12-07T16:28:18;12.70;;;9.18;;
13222;SDS011;6676;45.192;5.722;2022-12-07T16:31:11;14.93;;;9.80;;
13222;SDS011;6676;45.192;5.722;2022-12-07T16:34:08;13.65;;;9.23;;
13222;SDS011;6676;45.192;5.722;2022-12-07T16:37:02;15.30;;;9.70;;
13222;SDS011;6676;45.192;5.722;2022-12-07T16:39:53;14.30;;;9.90;;
13222;SDS011;6676;45.192;5.722;2022-12-07T16:42:45;18.20;;;10.28;;
13222;SDS011;6676;45.192;5.722;2022-12-07T16:45:37;14.18;;;9.50;;
13222;SDS011;6676;45.192;5.722;2022-12-07T16:48:30;12.65;;;9.08;;
13222;SDS011;6676;45.192;5.722;2022-12-07T16:51:23;14.15;;;9.78;;
13222;SDS011;6676;45.192;5.722;2022-12-07T16:54:15;15.40;;;10.35;;
13222;SDS011;6676;45.192;5.722;2022-12-07T16:57:07;14.73;;;10.25;;
13222;SDS011;6676;45.192;5.722;2022-12-07T17:00:02;14.07;;;9.05;;
13222;SDS011;6676;45.192;5.722;2022-12-07T17:02:59;13.60;;;9.13;;
13222;SDS011;6676;45.192;5.722;2022-12-07T17:05:51;18.02;;;10.50;;
13222;SDS011;6676;45.192;5.722;2022-12-07T17:08:51;14.75;;;9.58;;
13222;SDS011;6676;45.192;5.722;2022-12-07T17:11:51;15.13;;;9.98;;
13222;SDS011;6676;45.192;5.722;2022-12-07T17:14:44;15.70;;;11.38;;
13222;SDS011;6676;45.192;5.722;2022-12-07T17:18:10;15.63;;;10.38;;
13222;SDS011;6676;45.192;5.722;2022-12-07T17:21:11;14.50;;;9.88;;
13222;SDS011;6676;45.192;5.722;2022-12-07T17:24:04;16.35;;;10.15;;
13222;SDS011;6676;45.192;5.722;2022-12-07T17:26:58;13.62;;;9.08;;
13222;SDS011;6676;45.192;5.722;2022-12-07T17:29:50;14.33;;;10.72;;
13222;SDS011;6676;45.192;5.722;2022-12-07T17:32:43;12.93;;;9.08;;
13222;SDS011;6676;45.192;5.722;2022-12-07T17:35:34;15.65;;;9.85;;
13222;SDS011;6676;45.192;5.722;2022-12-07T17:38:29;14.87;;;10.15;;
13222;SDS011;6676;45.192;5.722;2022-12-07T17:41:23;15.45;;;10.58;;
13222;SDS011;6676;45.192;5.722;2022-12-07T17:44:34;16.17;;;11.12;;
13222;SDS011;6676;45.192;5.722;2022-12-07T17:47:32;15.45;;;10.35;;
13222;SDS011;6676;45.192;5.722;2022-12-07T17:50:24;15.05;;;10.85;;
13222;SDS011;6676;45.192;5.722;2022-12-07T17:53:05;16.77;;;11.40;;
13222;SDS011;6676;45.192;5.722;2022-12-07T17:56:00;16.50;;;11.12;;
13222;SDS011;6676;45.192;5.722;2022-12-07T17:58:56;14.75;;;9.93;;
13222;SDS011;6676;45.192;5.722;2022-12-07T18:01:48;15.25;;;10.30;;
13222;SDS011;6676;45.192;5.722;2022-12-07T18:04:40;15.23;;;10.38;;
13222;SDS011;6676;45.192;5.722;2022-12-07T18:07:32;15.28;;;10.40;;
13222;SDS011;6676;45.192;5.722;2022-12-07T18:10:19;22.58;;;12.73;;
13222;SDS011;6676;45.192;5.722;2022-12-07T18:13:11;17.90;;;10.35;;
13222;SDS011;6676;45.192;5.722;2022-12-07T18:16:21;16.30;;;10.60;;
13222;SDS011;6676;45.192;5.722;2022-12-07T18:19:18;13.20;;;9.85;;
13222;SDS011;6676;45.192;5.722;2022-12-07T18:22:10;13.90;;;9.93;;
13222;SDS011;6676;45.192;5.722;2022-12-07T18:25:01;17.45;;;10.58;;
13222;SDS011;6676;45.192;5.722;2022-12-07T18:27:54;14.30;;;10.58;;
13222;SDS011;6676;45.192;5.722;2022-12-07T18:30:46;14.45;;;10.18;;
13222;SDS011;6676;45.192;5.722;2022-12-07T18:33:41;16.40;;;10.75;;
13222;SDS011;6676;45.192;5.722;2022-12-07T18:36:35;13.35;;;9.78;;
13222;SDS011;6676;45.192;5.722;2022-12-07T18:42:06;15.60;;;10.40;;
13222;SDS011;6676;45.192;5.722;2022-12-07T18:44:58;13.75;;;9.95;;
13222;SDS011;6676;45.192;5.722;2022-12-07T18:47:50;12.98;;;9.23;;
13222;SDS011;6676;45.192;5.722;2022-12-07T18:50:44;14.83;;;10.05;;
13222;SDS011;6676;45.192;5.722;2022-12-07T18:56:24;16.32;;;11.38;;
13222;SDS011;6676;45.192;5.722;2022-12-07T18:59:15;18.60;;;13.88;;
13222;SDS011;6676;45.192;5.722;2022-12-07T19:05:06;16.93;;;11.88;;
13222;SDS011;6676;45.192;5.722;2022-12-07T19:07:58;17.57;;;12.55;;
13222;SDS011;6676;45.192;5.722;2022-12-07T19:10:52;17.90;;;12.25;;
13222;SDS011;6676;45.192;5.722;2022-12-07T19:16:26;19.17;;;12.78;;
13222;SDS011;6676;45.192;5.722;2022-12-07T19:19:27;16.77;;;11.68;;
13222;SDS011;6676;45.192;5.722;2022-12-07T19:22:20;17.70;;;11.50;;
13222;SDS011;6676;45.192;5.722;2022-12-07T19:25:12;17.77;;;11.28;;
13222;SDS011;6676;45.192;5.722;2022-12-07T19:30:43;17.20;;;12.18;;
13222;SDS011;6676;45.192;5.722;2022-12-07T19:33:35;16.37;;;11.25;;
13222;SDS011;6676;45.192;5.722;2022-12-07T19:36:26;17.80;;;12.30;;
13222;SDS011;6676;45.192;5.722;2022-12-07T19:39:18;17.98;;;11.50;;
13222;SDS011;6676;45.192;5.722;2022-12-07T19:42:10;17.92;;;12.15;;
13222;SDS011;6676;45.192;5.722;2022-12-07T19:45:05;19.45;;;12.78;;
13222;SDS011;6676;45.192;5.722;2022-12-07T19:47:57;18.48;;;12.47;;
13222;SDS011;6676;45.192;5.722;2022-12-07T19:50:49;19.45;;;13.10;;
13222;SDS011;6676;45.192;5.722;2022-12-07T19:56:22;18.92;;;12.25;;
13222;SDS011;6676;45.192;5.722;2022-12-07T19:59:16;20.10;;;13.38;;
13222;SDS011;6676;45.192;5.722;2022-12-07T20:02:11;18.48;;;11.78;;